createdAt,value
2023-01-08T00:00:35.484Z,2.60
2023-01-08T00:05:39.206Z,2.97
2023-01-08T00:10:41.583Z,2.78
2023-01-08T00:15:43.941Z,3.15
2023-01-08T00:20:48.029Z,3.30
2023-01-08T00:25:51.002Z,3.30
2023-01-08T00:30:53.371Z,2.58
2023-01-08T00:35:57.109Z,2.63
2023-01-08T00:40:59.711Z,2.92
2023-01-08T00:46:02.139Z,2.83
2023-01-08T00:51:06.438Z,3.10
2023-01-08T00:56:09.781Z,3.17
2023-01-08T01:01:13.152Z,3.15
2023-01-08T01:06:17.119Z,2.80
2023-01-08T01:11:20.508Z,3.13
2023-01-08T01:21:27.460Z,2.75
2023-01-08T01:26:30.149Z,3.75
2023-01-08T01:31:33.091Z,2.93
2023-01-08T01:36:37.612Z,2.70
2023-01-08T01:41:41.120Z,3.10
2023-01-08T01:46:43.506Z,2.83
2023-01-08T01:51:49.103Z,3.42
2023-01-08T01:56:51.627Z,3.47
2023-01-08T02:01:54.512Z,2.90
2023-01-08T02:07:02.067Z,3.22
2023-01-08T02:12:18.568Z,3.13
2023-01-08T02:17:25.267Z,2.80
2023-01-08T02:22:36.059Z,3.05
2023-01-08T02:27:41.703Z,3.67
2023-01-08T02:32:44.101Z,2.65
2023-01-08T02:37:46.468Z,2.92
2023-01-08T02:42:52.153Z,3.38
2023-01-08T02:47:56.010Z,3.38
2023-01-08T02:53:02.548Z,3.38
2023-01-08T02:58:06.599Z,3.15
2023-01-08T03:03:12.493Z,3.20
2023-01-08T03:08:15.043Z,3.17
2023-01-08T03:13:22.550Z,3.50
2023-01-08T03:18:28.964Z,3.10
2023-01-08T03:23:32.541Z,3.17
2023-01-08T03:28:38.218Z,2.97
2023-01-08T03:33:40.977Z,3.17
2023-01-08T03:38:46.038Z,3.20
2023-01-08T03:43:49.735Z,3.72
2023-01-08T03:48:52.139Z,2.10
2023-01-08T03:53:58.410Z,1.85
2023-01-08T03:59:02.095Z,1.52
2023-01-08T04:04:04.615Z,1.67
2023-01-08T04:09:07.011Z,1.63
2023-01-08T04:14:12.252Z,1.70
2023-01-08T04:19:14.980Z,1.20
2023-01-08T04:24:17.301Z,1.40
2023-01-08T04:29:21.012Z,1.08
2023-01-08T04:34:23.342Z,1.42
2023-01-08T04:39:25.656Z,1.60
2023-01-08T04:44:29.336Z,1.38
2023-01-08T04:49:31.708Z,1.52
2023-01-08T04:54:34.111Z,1.45
2023-01-08T04:59:37.852Z,1.40
2023-01-08T05:04:40.272Z,2.25
2023-01-08T05:09:42.674Z,2.13
2023-01-08T05:14:46.376Z,2.05
2023-01-08T05:19:48.779Z,1.30
2023-01-08T05:24:51.114Z,1.35
2023-01-08T05:29:54.794Z,1.30
2023-01-08T05:34:57.160Z,2.22
2023-01-08T05:39:59.493Z,2.03
2023-01-08T05:45:03.668Z,1.55
2023-01-08T05:50:06.489Z,1.75
2023-01-08T05:55:09.239Z,1.23
2023-01-08T06:00:13.779Z,1.40
2023-01-08T06:05:16.183Z,1.52
2023-01-08T06:10:18.659Z,1.70
2023-01-08T06:15:22.387Z,1.55
2023-01-08T06:20:24.739Z,1.55
2023-01-08T06:25:27.116Z,1.83
2023-01-08T06:30:30.868Z,2.00
2023-01-08T06:35:33.253Z,1.98
2023-01-08T06:40:35.649Z,2.10
2023-01-08T06:45:39.400Z,1.58
2023-01-08T06:50:41.776Z,1.42
2023-01-08T06:55:44.139Z,1.55
2023-01-08T07:00:47.883Z,1.23
2023-01-08T07:05:50.843Z,1.42
2023-01-08T07:10:53.251Z,0.98
2023-01-08T07:15:57.005Z,0.90
2023-01-08T07:20:59.378Z,1.05
2023-01-08T07:26:02.197Z,1.40
2023-01-08T07:31:06.793Z,1.17
2023-01-08T07:36:09.454Z,1.17
2023-01-08T07:41:13.202Z,1.47
2023-01-08T07:46:17.009Z,1.65
2023-01-08T07:51:19.445Z,1.23
2023-01-08T07:56:21.811Z,1.33
2023-01-08T08:01:26.457Z,1.50
2023-01-08T08:06:28.987Z,2.35
2023-01-08T08:11:31.402Z,1.35
2023-01-08T08:16:35.230Z,1.20
2023-01-08T08:21:37.743Z,1.35
2023-01-08T08:26:40.148Z,1.45
2023-01-08T08:31:43.974Z,1.30
2023-01-08T08:36:46.366Z,1.25
2023-01-08T08:41:48.748Z,1.70
2023-01-08T08:46:52.498Z,1.13
2023-01-08T08:51:54.852Z,1.23
2023-01-08T08:56:57.230Z,1.02
2023-01-08T09:02:01.176Z,1.80
2023-01-08T09:07:03.571Z,1.80
2023-01-08T09:12:06.093Z,1.40
2023-01-08T09:17:09.806Z,2.00
2023-01-08T09:22:12.257Z,1.55
2023-01-08T09:27:14.695Z,2.60
2023-01-08T09:32:18.378Z,1.77
2023-01-08T09:37:20.794Z,1.92
2023-01-08T09:42:24.984Z,2.20
2023-01-08T09:47:30.274Z,1.65
2023-01-08T09:52:32.937Z,1.75
2023-01-08T09:57:35.338Z,1.87
2023-01-08T10:02:40.790Z,1.40
2023-01-08T10:07:44.825Z,1.67
2023-01-08T10:12:48.033Z,1.65
2023-01-08T10:17:54.334Z,2.03
2023-01-08T10:22:57.014Z,2.45
2023-01-08T10:28:00.379Z,1.70
2023-01-08T10:33:05.952Z,2.15
2023-01-08T10:38:08.513Z,1.25
2023-01-08T10:43:14.363Z,1.60
2023-01-08T10:48:19.046Z,2.00
2023-01-08T10:53:26.021Z,1.85
2023-01-08T10:58:28.805Z,2.03
2023-01-08T11:03:33.367Z,1.92
2023-01-08T11:08:35.726Z,1.73
2023-01-08T11:13:38.938Z,3.10
2023-01-08T11:18:46.273Z,2.03
2023-01-08T11:23:49.152Z,1.83
2023-01-08T11:28:53.396Z,2.13
2023-01-08T11:33:59.661Z,1.83
2023-01-08T11:39:02.524Z,1.90
2023-01-08T11:44:13.324Z,1.95
2023-01-08T11:49:25.162Z,1.67
2023-01-08T11:54:34.242Z,1.70
2023-01-08T11:59:52.460Z,1.67
2023-01-08T12:05:10.070Z,1.70
2023-01-08T12:10:14.624Z,1.92
2023-01-08T12:15:20.460Z,1.90
2023-01-08T12:20:30.688Z,1.40
2023-01-08T12:25:38.914Z,1.30
2023-01-08T12:30:47.541Z,1.73
2023-01-08T12:35:54.187Z,1.40
2023-01-08T12:40:58.087Z,1.40
2023-01-08T12:46:02.364Z,1.77
2023-01-08T12:51:08.739Z,2.38
2023-01-08T12:56:14.074Z,1.08
2023-01-08T13:01:22.875Z,0.90
2023-01-08T13:06:27.067Z,1.00
2023-01-08T13:11:30.233Z,1.10
2023-01-08T13:16:39.442Z,0.80
2023-01-08T13:21:45.537Z,1.33
2023-01-08T13:26:47.983Z,0.88
2023-01-08T13:31:50.486Z,0.80
2023-01-08T13:36:57.867Z,1.00
2023-01-08T13:42:02.358Z,0.88
2023-01-08T13:47:06.846Z,0.75
2023-01-08T13:52:24.237Z,0.52
2023-01-08T13:57:32.445Z,0.80
2023-01-08T14:02:35.646Z,1.08
2023-01-08T14:07:39.099Z,0.90
2023-01-08T14:17:45.289Z,1.25
2023-01-08T14:22:47.769Z,1.15
2023-01-08T14:27:57.194Z,1.10
2023-01-08T14:33:01.357Z,1.42
2023-01-08T14:38:05.604Z,1.20
2023-01-08T14:43:09.429Z,1.50
2023-01-08T14:48:19.008Z,1.50
2023-01-08T14:53:24.773Z,1.55
2023-01-08T14:58:28.473Z,1.38
2023-01-08T15:03:33.976Z,1.33
2023-01-08T15:08:37.269Z,1.27
2023-01-08T15:13:39.655Z,1.35
2023-01-08T15:18:45.136Z,1.38
2023-01-08T15:23:48.646Z,1.30
2023-01-08T15:33:54.676Z,1.83
2023-01-08T15:38:57.034Z,1.77
2023-01-08T15:43:59.434Z,1.40
2023-01-08T15:49:03.097Z,1.73
2023-01-08T15:54:05.600Z,1.35
2023-01-08T15:59:08.032Z,2.03
2023-01-08T16:04:11.714Z,1.50
2023-01-08T16:09:14.082Z,1.80
2023-01-08T16:14:16.463Z,1.70
2023-01-08T16:19:20.154Z,1.55
2023-01-08T16:24:22.516Z,2.67
2023-01-08T16:29:24.857Z,2.50
2023-01-08T16:34:29.741Z,1.50
2023-01-08T16:39:33.052Z,2.40
2023-01-08T16:44:36.744Z,3.13
2023-01-08T16:49:41.695Z,2.50
2023-01-08T16:54:44.300Z,2.95
2023-01-08T16:59:46.654Z,2.47
2023-01-08T17:04:50.343Z,2.20
2023-01-08T17:09:52.675Z,2.33
2023-01-08T17:14:55.037Z,3.20
2023-01-08T17:19:58.742Z,2.65
2023-01-08T17:25:01.078Z,2.80
2023-01-08T17:30:03.409Z,1.70
2023-01-08T17:35:07.770Z,2.03
2023-01-08T17:40:10.768Z,2.08
2023-01-08T17:45:13.175Z,2.40
2023-01-08T17:50:17.203Z,2.42
2023-01-08T17:55:19.531Z,2.00
2023-01-08T18:00:22.303Z,2.28
2023-01-08T18:05:26.018Z,2.07
2023-01-08T18:10:28.429Z,2.08
2023-01-08T18:15:30.843Z,2.28
2023-01-08T18:20:34.577Z,2.63
2023-01-08T18:25:40.701Z,2.17
2023-01-08T18:30:45.594Z,2.33
2023-01-08T18:35:49.330Z,2.58
2023-01-08T18:40:53.201Z,2.67
2023-01-08T18:45:58.903Z,2.45
2023-01-08T18:51:05.314Z,4.25
2023-01-08T18:56:08.099Z,8.02
2023-01-08T19:01:10.581Z,2.87
2023-01-08T19:06:15.559Z,3.28
2023-01-08T19:11:17.958Z,2.95
2023-01-08T19:16:20.852Z,3.97
2023-01-08T19:21:24.603Z,2.92
2023-01-08T19:26:26.968Z,2.20
2023-01-08T19:31:29.627Z,2.15
2023-01-08T19:36:33.983Z,2.30
2023-01-08T19:41:54.070Z,1.85
2023-01-08T19:46:56.505Z,1.90
2023-01-08T19:52:00.282Z,1.88
2023-01-08T19:57:02.672Z,1.83
2023-01-08T20:02:05.198Z,2.30
2023-01-08T20:07:08.945Z,2.20
2023-01-08T20:12:11.591Z,2.03
2023-01-08T20:17:13.959Z,2.03
2023-01-08T20:22:18.891Z,3.15
2023-01-08T20:27:21.252Z,2.20
2023-01-08T20:32:23.680Z,3.63
2023-01-08T20:37:29.216Z,2.75
2023-01-08T20:42:34.598Z,2.40
2023-01-08T20:47:37.120Z,2.63
2023-01-08T20:52:40.781Z,2.65
2023-01-08T20:57:43.162Z,2.75
2023-01-08T21:02:49.091Z,4.95
2023-01-08T21:07:52.933Z,3.40
2023-01-08T21:12:55.318Z,2.65
2023-01-08T21:17:57.701Z,2.22
2023-01-08T21:23:01.598Z,2.45
2023-01-08T21:28:04.143Z,2.80
2023-01-08T21:33:06.507Z,2.53
2023-01-08T21:38:10.271Z,3.08
2023-01-08T21:43:30.545Z,3.60
2023-01-08T21:48:32.877Z,3.33
2023-01-08T21:53:36.692Z,2.80
2023-01-08T21:58:39.186Z,3.22
2023-01-08T22:03:41.553Z,3.33
2023-01-08T22:08:45.320Z,2.80
2023-01-08T22:13:47.720Z,2.92
2023-01-08T22:18:50.103Z,3.22
2023-01-08T22:23:53.781Z,2.80
2023-01-08T22:28:56.476Z,2.83
2023-01-08T22:33:59.211Z,3.40
2023-01-08T22:39:02.913Z,3.00
2023-01-08T22:44:05.377Z,2.55
2023-01-08T22:49:07.971Z,1.73
2023-01-08T22:54:12.871Z,1.43
2023-01-08T22:59:15.262Z,1.52
2023-01-08T23:04:17.678Z,1.90
2023-01-08T23:09:21.365Z,1.48
2023-01-08T23:14:23.750Z,1.80
2023-01-08T23:19:26.144Z,1.60
2023-01-08T23:24:30.910Z,1.95
2023-01-08T23:29:33.418Z,2.20
2023-01-08T23:34:35.766Z,3.00
2023-01-08T23:39:39.653Z,2.53
2023-01-08T23:44:42.127Z,2.38
2023-01-08T23:49:44.506Z,2.97
2023-01-08T23:54:48.257Z,3.00
2023-01-08T23:59:50.662Z,3.40
